Time;durP1;ratioP1;P1;durP2;ratioP2;P2;SDS_P1;SDS_P2;PMS_P1;PMS_P2;Temp;Humidity;BMP_temperature;BMP_pressure;BME280_temperature;BME280_humidity;BME280_pressure;Samples;Min_cycle;Max_cycle;Signal;HPM_P1;HPM_P2
2023/07/27 00:00:09;;;;;;;3.20;2.50;;;17.20;94.80;;;;;;4732485;30;20488;-73
2023/07/27 00:02:35;;;;;;;2.50;1.93;;;17.10;94.70;;;;;;4728772;30;20192;-74
2023/07/27 00:05:02;;;;;;;2.57;1.87;;;17.10;94.60;;;;;;4728608;30;20882;-74
2023/07/27 00:07:28;;;;;;;3.50;2.17;;;17.10;94.60;;;;;;4729852;30;20479;-74
2023/07/27 00:09:56;;;;;;;2.43;1.90;;;17.10;94.60;;;;;;4732078;30;20460;-71
2023/07/27 00:12:22;;;;;;;2.30;1.67;;;17.00;94.60;;;;;;4751810;30;20189;-73
2023/07/27 00:14:48;;;;;;;2.50;2.30;;;17.00;94.60;;;;;;4733764;30;20518;-72
2023/07/27 00:17:15;;;;;;;1.73;1.47;;;17.00;94.70;;;;;;4733699;30;20192;-74
2023/07/27 00:19:40;;;;;;;2.53;1.80;;;17.00;94.70;;;;;;4761775;24;20793;-73
2023/07/27 00:22:06;;;;;;;2.43;2.17;;;16.90;94.60;;;;;;4788468;30;20193;-73
2023/07/27 00:24:32;;;;;;;2.37;1.93;;;16.90;94.70;;;;;;4785653;30;20473;-74
2023/07/27 00:26:58;;;;;;;2.50;1.83;;;16.90;94.80;;;;;;4801351;29;20427;-73
2023/07/27 00:29:23;;;;;;;2.67;1.83;;;16.80;94.80;;;;;;4782315;30;20206;-75
2023/07/27 00:31:50;;;;;;;3.80;2.20;;;16.80;94.90;;;;;;4784336;30;20270;-74
2023/07/27 00:34:16;;;;;;;2.13;1.70;;;16.80;95.00;;;;;;4793569;29;20190;-74
2023/07/27 00:36:42;;;;;;;3.10;2.00;;;16.80;95.10;;;;;;4803978;29;20418;-73
2023/07/27 00:39:07;;;;;;;2.97;1.80;;;16.80;95.00;;;;;;4801439;29;20480;-72
2023/07/27 00:41:33;;;;;;;4.40;2.30;;;16.80;95.00;;;;;;4775254;30;20229;-72
2023/07/27 00:43:59;;;;;;;2.60;2.33;;;16.80;94.80;;;;;;4765977;30;20196;-73
2023/07/27 00:46:25;;;;;;;3.00;2.63;;;16.80;94.70;;;;;;4766887;30;20194;-73
2023/07/27 00:48:50;;;;;;;4.10;2.50;;;16.80;94.80;;;;;;4785513;29;20191;-73
2023/07/27 00:51:16;;;;;;;3.67;2.40;;;16.80;94.60;;;;;;4801006;29;20518;-73
2023/07/27 00:53:42;;;;;;;4.27;2.20;;;16.80;94.50;;;;;;4774621;30;20205;-73
2023/07/27 00:56:08;;;;;;;4.20;2.27;;;16.80;94.50;;;;;;4791777;30;20186;-72
2023/07/27 00:58:36;;;;;;;3.63;2.10;;;16.80;94.40;;;;;;4789974;30;20514;-73
2023/07/27 01:01:03;;;;;;;3.70;2.27;;;16.70;94.20;;;;;;4802752;29;20456;-74
2023/07/27 01:03:28;;;;;;;2.73;2.40;;;16.70;94.20;;;;;;4815558;29;20495;-73
2023/07/27 01:05:54;;;;;;;3.30;2.43;;;16.70;94.30;;;;;;4782403;29;20439;-71
2023/07/27 01:08:20;;;;;;;2.57;2.13;;;16.70;94.30;;;;;;4813155;29;20187;-72
2023/07/27 01:10:57;;;;;;;2.33;1.87;;;16.70;94.30;;;;;;4796534;29;20452;-74
2023/07/27 01:13:38;;;;;;;2.37;1.83;;;16.60;94.30;;;;;;4765024;30;20445;-72
2023/07/27 01:16:14;;;;;;;2.50;2.00;;;16.60;94.40;;;;;;4801568;29;20438;-72
2023/07/27 01:18:45;;;;;;;2.33;1.70;;;16.60;94.50;;;;;;4777841;30;20420;-73
2023/07/27 01:21:19;;;;;;;3.20;2.00;;;16.60;94.60;;;;;;4764685;29;20465;-72
2023/07/27 01:24:06;;;;;;;3.00;2.30;;;16.60;94.70;;;;;;4815754;29;20437;-72
2023/07/27 01:26:44;;;;;;;3.50;2.40;;;16.60;94.60;;;;;;4796251;29;20430;-72
2023/07/27 01:29:33;;;;;;;3.50;2.33;;;16.60;94.40;;;;;;4784307;29;20482;-73
2023/07/27 01:32:00;;;;;;;3.10;2.67;;;16.70;94.10;;;;;;4782477;29;20427;-72
2023/07/27 01:34:32;;;;;;;3.37;2.60;;;16.70;94.00;;;;;;4812102;29;20663;-71
2023/07/27 01:37:08;;;;;;;3.20;2.07;;;16.70;93.80;;;;;;4796543;29;20434;-73
2023/07/27 01:39:41;;;;;;;4.40;2.40;;;16.70;93.60;;;;;;4808694;29;20487;-72
2023/07/27 01:42:11;;;;;;;2.80;2.40;;;16.80;93.50;;;;;;4767674;29;20964;-72
2023/07/27 01:44:37;;;;;;;3.10;2.33;;;16.80;93.20;;;;;;4813700;29;20418;-74
2023/07/27 01:47:07;;;;;;;3.17;2.40;;;16.80;93.10;;;;;;4764790;30;20427;-72
2023/07/27 01:49:37;;;;;;;2.70;2.27;;;16.80;93.00;;;;;;4772380;30;20465;-73
2023/07/27 01:52:04;;;;;;;2.60;2.20;;;16.80;93.00;;;;;;4788239;29;20480;-73
2023/07/27 01:54:31;;;;;;;1.83;1.60;;;16.80;92.80;;;;;;4795310;29;20549;-72
2023/07/27 01:56:58;;;;;;;2.47;1.77;;;16.80;93.20;;;;;;4778448;30;20890;-73
2023/07/27 01:59:24;;;;;;;3.57;2.43;;;16.70;92.70;;;;;;4778390;30;20476;-72
2023/07/27 02:01:51;;;;;;;2.13;1.80;;;16.70;92.70;;;;;;4785974;29;20417;-73
2023/07/27 02:04:16;;;;;;;2.90;2.23;;;16.70;92.70;;;;;;4784246;30;20429;-73
2023/07/27 02:06:43;;;;;;;2.03;1.87;;;16.70;92.50;;;;;;4764200;30;20409;-73
2023/07/27 02:09:08;;;;;;;1.90;1.60;;;16.70;92.40;;;;;;4807587;29;20556;-73
2023/07/27 02:11:34;;;;;;;2.57;2.00;;;16.80;92.40;;;;;;4777314;30;20517;-73
2023/07/27 02:14:11;;;;;;;2.87;2.23;;;16.80;92.20;;;;;;4780006;30;20207;-73
2023/07/27 02:16:48;;;;;;;2.13;1.80;;;16.80;92.10;;;;;;4795019;30;20456;-75
2023/07/27 02:19:16;;;;;;;3.73;2.00;;;16.80;91.80;;;;;;4812346;29;20521;-73
2023/07/27 02:21:43;;;;;;;2.67;2.37;;;16.80;91.70;;;;;;4778807;30;20436;-73
2023/07/27 02:24:09;;;;;;;4.07;2.00;;;16.80;91.80;;;;;;4779560;30;20460;-75
2023/07/27 02:26:35;;;;;;;4.40;2.50;;;16.80;91.70;;;;;;4797324;30;20440;-74
2023/07/27 02:29:01;;;;;;;3.40;2.47;;;16.80;91.50;;;;;;4781783;30;20434;-72
2023/07/27 02:31:26;;;;;;;3.10;2.47;;;16.80;91.50;;;;;;4781667;30;20421;-72
2023/07/27 02:33:52;;;;;;;2.60;1.80;;;16.80;91.60;;;;;;4792698;29;20243;-74
2023/07/27 02:36:18;;;;;;;2.83;2.37;;;16.80;91.80;;;;;;4803558;29;20587;-72
2023/07/27 02:38:44;;;;;;;3.10;2.00;;;16.80;91.70;;;;;;4773635;30;20429;-75
2023/07/27 02:41:10;;;;;;;3.73;2.30;;;16.80;91.80;;;;;;4771515;30;20210;-71
2023/07/27 02:43:38;;;;;;;2.53;2.33;;;16.80;92.20;;;;;;4770210;30;20556;-72
2023/07/27 02:46:05;;;;;;;3.60;2.43;;;16.80;92.70;;;;;;4781825;30;20442;-74
2023/07/27 02:48:31;;;;;;;4.60;2.10;;;16.70;93.40;;;;;;4782250;30;20805;-72
2023/07/27 02:50:56;;;;;;;3.70;2.33;;;16.70;94.40;;;;;;4782156;30;20459;-73
2023/07/27 02:53:22;;;;;;;3.63;2.40;;;16.60;95.70;;;;;;4797492;30;20416;-73
2023/07/27 02:56:02;;;;;;;2.40;1.77;;;16.40;97.20;;;;;;4786167;29;20187;-73
2023/07/27 02:58:36;;;;;;;6.13;3.50;;;16.30;99.80;;;;;;4799118;29;20432;-73
2023/07/27 03:01:02;;;;;;;4.53;3.37;;;16.10;99.90;;;;;;4799782;29;20536;-74
2023/07/27 03:03:28;;;;;;;3.70;2.87;;;16.00;99.90;;;;;;4786588;30;20203;-74
2023/07/27 03:06:04;;;;;;;4.33;2.83;;;15.90;99.90;;;;;;4780433;30;20421;-74
2023/07/27 03:08:31;;;;;;;3.20;2.47;;;15.70;99.90;;;;;;4780232;30;20424;-74
2023/07/27 03:11:04;;;;;;;3.07;2.50;;;15.60;99.90;;;;;;4777699;30;20452;-74
2023/07/27 03:13:31;;;;;;;4.13;2.90;;;15.50;99.90;;;;;;4796445;29;20705;-73
2023/07/27 03:15:57;;;;;;;3.13;2.70;;;15.40;99.90;;;;;;4766163;30;20429;-72
2023/07/27 03:18:23;;;;;;;3.77;3.17;;;15.30;99.90;;;;;;4778763;29;20442;-74
2023/07/27 03:20:48;;;;;;;3.90;2.90;;;15.30;99.90;;;;;;4814359;29;20300;-72
2023/07/27 03:23:14;;;;;;;3.80;3.10;;;15.20;99.90;;;;;;4815851;29;20416;-75
2023/07/27 03:25:40;;;;;;;3.37;2.73;;;15.20;99.90;;;;;;4778139;30;20465;-72
2023/07/27 03:28:07;;;;;;;4.10;3.20;;;15.20;99.90;;;;;;4762737;30;20409;-73
2023/07/27 03:30:38;;;;;;;4.80;3.30;;;15.20;99.90;;;;;;4762333;30;20215;-73
2023/07/27 03:33:04;;;;;;;5.53;3.20;;;15.20;99.90;;;;;;4784093;29;20425;-73
2023/07/27 03:35:30;;;;;;;5.03;3.30;;;15.10;99.90;;;;;;4797402;29;20725;-73
2023/07/27 03:37:55;;;;;;;5.40;3.17;;;15.10;99.90;;;;;;4781297;30;20437;-72
2023/07/27 03:40:21;;;;;;;3.63;3.27;;;15.10;99.90;;;;;;4780144;30;21063;-72
2023/07/27 03:42:47;;;;;;;3.60;2.60;;;15.00;99.90;;;;;;4795636;30;20199;-71
2023/07/27 03:45:14;;;;;;;3.40;2.90;;;15.00;99.90;;;;;;4792680;30;20250;-72
2023/07/27 03:47:44;;;;;;;2.80;2.30;;;15.00;99.90;;;;;;4781239;29;20205;-73
2023/07/27 03:50:10;;;;;;;3.40;2.87;;;15.00;99.90;;;;;;4796706;29;20471;-73
2023/07/27 03:52:36;;;;;;;2.60;2.17;;;14.90;99.90;;;;;;4808826;29;20737;-72
2023/07/27 03:55:07;;;;;;;5.17;3.50;;;14.90;99.90;;;;;;4776765;30;20772;-73
2023/07/27 03:57:32;;;;;;;4.87;3.00;;;14.90;99.90;;;;;;4761769;30;20438;-73
2023/07/27 03:59:59;;;;;;;6.13;3.20;;;14.80;99.90;;;;;;4761446;30;20216;-72
2023/07/27 04:02:25;;;;;;;4.30;3.27;;;14.80;99.90;;;;;;4762652;29;20265;-73
2023/07/27 04:04:53;;;;;;;3.33;3.03;;;14.70;99.90;;;;;;4771458;29;20429;-73
2023/07/27 04:07:19;;;;;;;3.60;3.13;;;14.70;99.90;;;;;;4787347;30;20456;-73
2023/07/27 04:09:45;;;;;;;3.93;2.87;;;14.70;99.90;;;;;;4795199;29;20876;-74
2023/07/27 04:12:11;;;;;;;5.33;3.23;;;14.70;99.90;;;;;;4783968;29;20203;-74
2023/07/27 04:14:37;;;;;;;4.60;3.60;;;14.60;99.90;;;;;;4787646;30;20213;-73
2023/07/27 04:17:03;;;;;;;4.23;3.07;;;14.60;99.90;;;;;;4796827;29;20206;-74
2023/07/27 04:19:29;;;;;;;3.73;3.33;;;14.60;99.90;;;;;;4800957;29;20516;-73
2023/07/27 04:21:54;;;;;;;3.10;2.80;;;14.50;99.90;;;;;;4813391;29;20497;-74
2023/07/27 04:24:20;;;;;;;2.60;2.40;;;14.50;99.90;;;;;;4808905;29;20198;-71
2023/07/27 04:26:46;;;;;;;3.93;3.30;;;14.50;99.90;;;;;;4777018;29;20191;-73
2023/07/27 04:29:12;;;;;;;3.63;3.20;;;14.40;99.90;;;;;;4788894;29;20501;-76
2023/07/27 04:31:37;;;;;;;4.07;3.30;;;14.40;99.90;;;;;;4803261;29;20263;-75
2023/07/27 04:34:03;;;;;;;4.07;3.40;;;14.40;99.90;;;;;;4803458;29;20715;-74
2023/07/27 04:36:29;;;;;;;4.27;3.30;;;14.40;99.90;;;;;;4788427;29;20187;-73
2023/07/27 04:38:54;;;;;;;4.50;4.10;;;14.40;99.90;;;;;;4782206;29;20277;-74
2023/07/27 04:41:20;;;;;;;3.30;3.00;;;14.40;99.90;;;;;;4770537;30;20593;-74
2023/07/27 04:43:45;;;;;;;3.70;3.10;;;14.30;99.90;;;;;;4771925;30;20463;-76
2023/07/27 04:46:11;;;;;;;4.00;3.43;;;14.30;99.90;;;;;;4764997;30;20274;-73
2023/07/27 04:48:36;;;;;;;3.80;3.40;;;14.30;99.90;;;;;;4790869;29;20214;-73
2023/07/27 04:51:02;;;;;;;4.30;3.90;;;14.30;99.90;;;;;;4800418;29;20230;-72
2023/07/27 04:53:28;;;;;;;4.40;3.73;;;14.30;99.90;;;;;;4817233;29;20167;-74
2023/07/27 04:55:53;;;;;;;3.47;3.17;;;14.30;99.90;;;;;;4798174;29;20189;-74
2023/07/27 04:58:19;;;;;;;4.17;3.43;;;14.30;99.90;;;;;;4793371;30;20190;-74
2023/07/27 05:00:44;;;;;;;2.87;2.63;;;14.30;99.90;;;;;;4781882;30;20313;-73
2023/07/27 05:03:10;;;;;;;2.83;2.53;;;14.20;99.90;;;;;;4795980;29;20484;-73
2023/07/27 05:05:43;;;;;;;2.53;2.10;;;14.30;99.90;;;;;;4799598;29;20205;-75
2023/07/27 05:08:08;;;;;;;3.20;2.37;;;14.20;99.90;;;;;;4799184;29;20658;-76
2023/07/27 05:10:34;;;;;;;2.80;2.50;;;14.20;99.90;;;;;;4803358;29;20465;-75
2023/07/27 05:12:59;;;;;;;2.73;2.37;;;14.20;99.90;;;;;;4789855;30;20203;-74
2023/07/27 05:15:25;;;;;;;2.70;2.20;;;14.20;99.90;;;;;;4779741;29;20625;-74
2023/07/27 05:17:50;;;;;;;2.97;2.40;;;14.20;99.90;;;;;;4796657;30;20348;-75
2023/07/27 05:20:16;;;;;;;3.93;3.53;;;14.20;99.90;;;;;;4797091;29;20231;-75
2023/07/27 05:22:42;;;;;;;4.50;2.80;;;14.20;99.90;;;;;;4780824;30;20283;-75
2023/07/27 05:25:10;;;;;;;3.20;2.80;;;14.20;99.90;;;;;;4791138;30;20191;-75
2023/07/27 05:27:36;;;;;;;3.60;3.10;;;14.20;99.90;;;;;;4763734;30;20505;-75
2023/07/27 05:30:02;;;;;;;4.37;2.70;;;14.20;99.90;;;;;;4748689;30;20477;-75
2023/07/27 05:32:28;;;;;;;5.20;3.50;;;14.20;99.90;;;;;;4767226;30;20465;-73
2023/07/27 05:34:54;;;;;;;3.67;3.10;;;14.20;99.90;;;;;;4782161;30;20490;-74
2023/07/27 05:37:20;;;;;;;3.53;2.93;;;14.20;99.90;;;;;;4798138;30;20179;-77
2023/07/27 05:39:46;;;;;;;4.53;2.97;;;14.20;99.90;;;;;;4783062;30;20775;-74
2023/07/27 05:42:11;;;;;;;6.47;3.73;;;14.30;99.90;;;;;;4796208;29;20452;-74
2023/07/27 05:44:37;;;;;;;6.90;4.30;;;14.20;99.90;;;;;;4785626;30;20200;-74
2023/07/27 05:47:05;;;;;;;6.70;4.83;;;14.20;99.90;;;;;;4785115;30;20202;-73
2023/07/27 05:49:31;;;;;;;6.83;4.60;;;14.20;99.90;;;;;;4769259;30;20495;-73
2023/07/27 05:51:57;;;;;;;5.97;4.50;;;14.20;99.90;;;;;;4786525;29;20428;-74
2023/07/27 05:54:22;;;;;;;5.67;4.27;;;14.20;99.90;;;;;;4801854;29;20478;-74
2023/07/27 05:56:48;;;;;;;5.70;5.10;;;14.20;99.90;;;;;;4802648;29;20207;-73
2023/07/27 05:59:14;;;;;;;4.87;4.40;;;14.30;99.90;;;;;;4802319;29;20197;-74
2023/07/27 06:01:39;;;;;;;5.77;5.10;;;14.20;99.90;;;;;;4821477;29;20187;-72
2023/07/27 06:04:06;;;;;;;5.63;4.13;;;14.20;99.90;;;;;;4779858;30;20204;-74
2023/07/27 06:06:32;;;;;;;4.70;4.13;;;14.20;99.90;;;;;;4784610;30;20222;-72
2023/07/27 06:08:57;;;;;;;3.93;3.53;;;14.30;99.90;;;;;;4789454;29;20423;-72
2023/07/27 06:11:23;;;;;;;5.77;4.27;;;14.30;99.90;;;;;;4782252;29;20214;-74
2023/07/27 06:13:49;;;;;;;4.27;3.67;;;14.30;99.90;;;;;;4776874;29;20189;-74
2023/07/27 06:16:15;;;;;;;4.37;3.50;;;14.30;99.90;;;;;;4797709;30;20207;-74
2023/07/27 06:18:41;;;;;;;4.00;3.60;;;14.30;99.90;;;;;;4789344;30;20183;-75
2023/07/27 06:21:07;;;;;;;3.97;2.67;;;14.30;99.90;;;;;;4787588;30;20542;-76
2023/07/27 06:23:33;;;;;;;5.50;3.10;;;14.40;99.90;;;;;;4789799;30;20253;-75
2023/07/27 06:25:58;;;;;;;3.73;3.37;;;14.40;99.90;;;;;;4774924;30;20459;-74
2023/07/27 06:28:24;;;;;;;3.70;3.20;;;14.40;99.90;;;;;;4797735;29;20174;-73
2023/07/27 06:30:50;;;;;;;3.83;2.53;;;14.40;99.90;;;;;;4805225;29;20222;-74
2023/07/27 06:33:15;;;;;;;3.40;2.37;;;14.50;99.90;;;;;;4790330;29;20261;-74
2023/07/27 06:35:42;;;;;;;3.40;2.80;;;14.50;99.90;;;;;;4805262;29;20583;-74
2023/07/27 06:38:07;;;;;;;3.10;2.27;;;14.60;99.90;;;;;;4801507;30;20186;-74
2023/07/27 06:40:33;;;;;;;3.60;2.67;;;14.60;99.90;;;;;;4780108;30;20477;-73
2023/07/27 06:42:59;;;;;;;3.37;3.07;;;14.60;99.90;;;;;;4770659;30;20417;-75
2023/07/27 06:45:25;;;;;;;2.90;2.60;;;14.60;99.90;;;;;;4761014;29;20194;-75
2023/07/27 06:47:50;;;;;;;3.03;2.50;;;14.70;99.90;;;;;;4794434;29;20251;-75
2023/07/27 06:50:16;;;;;;;3.40;2.30;;;14.80;99.90;;;;;;4799583;29;20285;-76
2023/07/27 06:52:42;;;;;;;2.90;2.33;;;14.80;99.90;;;;;;4803524;30;20306;-74
2023/07/27 06:55:08;;;;;;;3.03;2.73;;;14.90;99.90;;;;;;4771060;30;20611;-73
2023/07/27 06:57:33;;;;;;;4.13;2.57;;;15.00;99.90;;;;;;4771829;30;20190;-74
2023/07/27 06:59:59;;;;;;;3.27;2.67;;;15.00;99.90;;;;;;4771960;30;20465;-76
2023/07/27 07:02:26;;;;;;;3.00;2.70;;;15.00;99.90;;;;;;4799687;29;20251;-74
2023/07/27 07:04:51;;;;;;;3.13;2.63;;;15.10;99.90;;;;;;4790109;29;20272;-73
2023/07/27 07:07:17;;;;;;;4.00;3.00;;;15.10;99.90;;;;;;4803725;29;20433;-73
2023/07/27 07:09:43;;;;;;;2.77;2.57;;;15.20;99.90;;;;;;4771208;30;20316;-76
2023/07/27 07:12:09;;;;;;;3.10;2.80;;;15.20;99.90;;;;;;4784177;29;20440;-75
2023/07/27 07:14:35;;;;;;;3.40;3.10;;;15.30;99.90;;;;;;4763292;30;20207;-75
2023/07/27 07:17:01;;;;;;;3.30;3.00;;;15.40;99.90;;;;;;4755860;30;20227;-74
2023/07/27 07:19:27;;;;;;;2.63;2.43;;;15.40;99.90;;;;;;4754909;30;20231;-73
2023/07/27 07:21:53;;;;;;;2.57;2.33;;;15.50;99.90;;;;;;4774695;29;20459;-76
2023/07/27 07:24:19;;;;;;;4.70;2.90;;;15.50;99.90;;;;;;4805766;29;20183;-73
2023/07/27 07:26:45;;;;;;;2.80;2.43;;;15.50;99.90;;;;;;4802373;29;20191;-74
2023/07/27 07:29:11;;;;;;;3.13;2.80;;;15.60;99.90;;;;;;4785233;30;20420;-75
2023/07/27 07:31:37;;;;;;;3.10;2.77;;;15.60;99.90;;;;;;4771361;30;20437;-75
2023/07/27 07:34:04;;;;;;;2.30;2.10;;;15.60;99.90;;;;;;4799484;29;20439;-74
2023/07/27 07:36:29;;;;;;;2.53;2.10;;;15.60;99.90;;;;;;4768961;30;20891;-76
2023/07/27 07:38:55;;;;;;;2.23;1.63;;;15.70;99.90;;;;;;4779358;29;20460;-73
2023/07/27 07:41:22;;;;;;;2.93;2.73;;;15.80;99.90;;;;;;4769921;30;20208;-75
2023/07/27 07:43:48;;;;;;;3.10;2.23;;;15.80;99.90;;;;;;4782989;29;20229;-76
2023/07/27 07:46:13;;;;;;;2.93;2.53;;;15.80;99.90;;;;;;4788826;30;20417;-79
2023/07/27 07:48:39;;;;;;;2.50;2.30;;;15.80;99.90;;;;;;4782485;29;20275;-74
2023/07/27 07:51:12;;;;;;;2.80;2.43;;;15.80;99.90;;;;;;4806882;29;20218;-78
2023/07/27 07:53:38;;;;;;;2.37;2.17;;;15.90;99.90;;;;;;4784963;30;20426;-74
2023/07/27 07:56:12;;;;;;;4.70;1.80;;;15.80;99.90;;;;;;4781129;29;20425;-74
2023/07/27 07:58:37;;;;;;;2.90;2.03;;;15.80;99.90;;;;;;4788538;30;20440;-76
2023/07/27 08:01:03;;;;;;;2.10;1.87;;;15.80;99.90;;;;;;4775184;30;20449;-76
2023/07/27 08:03:30;;;;;;;3.57;2.00;;;15.80;99.90;;;;;;4787421;30;20194;-76
2023/07/27 08:05:57;;;;;;;2.20;1.90;;;15.80;99.90;;;;;;4802380;29;20195;-74
2023/07/27 08:08:22;;;;;;;1.70;1.60;;;15.90;99.90;;;;;;4792163;29;20413;-78
2023/07/27 08:10:49;;;;;;;2.03;1.83;;;15.90;99.90;;;;;;4779051;30;20463;-75
2023/07/27 08:13:14;;;;;;;1.90;1.80;;;15.90;99.90;;;;;;4789671;29;20558;-77
2023/07/27 08:15:40;;;;;;;1.63;1.40;;;16.00;99.90;;;;;;4785328;30;20901;-77
2023/07/27 08:18:09;;;;;;;2.10;1.90;;;16.00;99.90;;;;;;4755933;30;20203;-74
2023/07/27 08:20:35;;;;;;;1.70;1.60;;;16.00;99.90;;;;;;4797606;29;20241;-78
2023/07/27 08:23:01;;;;;;;1.57;1.47;;;16.00;99.90;;;;;;4791379;29;20424;-77
2023/07/27 08:25:27;;;;;;;2.20;1.70;;;16.00;99.90;;;;;;4778773;30;20444;-75
2023/07/27 08:27:52;;;;;;;2.13;1.93;;;16.10;99.90;;;;;;4773239;30;20264;-74
2023/07/27 08:30:18;;;;;;;1.60;1.47;;;16.10;99.90;;;;;;4788968;30;20564;-76
2023/07/27 08:32:46;;;;;;;1.80;1.50;;;16.20;99.90;;;;;;4773251;30;20188;-75
2023/07/27 08:35:12;;;;;;;1.50;1.20;;;16.20;99.90;;;;;;4774375;30;20425;-76
2023/07/27 08:37:38;;;;;;;1.80;1.60;;;16.30;99.90;;;;;;4776368;30;20440;-75
2023/07/27 08:40:08;;;;;;;1.40;1.30;;;16.30;99.90;;;;;;4770585;30;20250;-77
2023/07/27 08:42:35;;;;;;;1.40;1.10;;;16.20;99.90;;;;;;4757527;30;20476;-76
2023/07/27 08:45:01;;;;;;;1.30;1.03;;;16.20;99.90;;;;;;4760562;30;20900;-76
2023/07/27 08:47:28;;;;;;;1.37;1.27;;;16.20;99.90;;;;;;4771135;30;20421;-74
2023/07/27 08:49:56;;;;;;;1.30;1.17;;;16.20;99.90;;;;;;4778017;29;20464;-79
2023/07/27 08:52:24;;;;;;;1.90;1.57;;;16.20;99.90;;;;;;4762876;30;20438;-74
2023/07/27 08:54:50;;;;;;;1.43;1.30;;;16.20;99.90;;;;;;4771633;30;20445;-75
2023/07/27 08:57:15;;;;;;;1.60;1.20;;;16.10;99.90;;;;;;4787834;30;20426;-75
2023/07/27 08:59:43;;;;;;;1.20;1.03;;;16.20;99.90;;;;;;4785483;30;20236;-76
2023/07/27 09:02:09;;;;;;;1.70;1.60;;;16.20;99.90;;;;;;4799255;30;20200;-76
2023/07/27 09:04:34;;;;;;;1.70;1.50;;;16.30;99.90;;;;;;4787928;29;20495;-76
2023/07/27 09:07:07;;;;;;;1.70;1.50;;;16.40;99.90;;;;;;4788689;29;20191;-75
2023/07/27 09:09:34;;;;;;;1.50;1.40;;;16.50;99.90;;;;;;4790607;29;20211;-77
2023/07/27 09:12:03;;;;;;;1.50;1.40;;;16.50;99.90;;;;;;4790822;29;20497;-75
2023/07/27 09:14:34;;;;;;;2.13;1.70;;;16.50;99.90;;;;;;4790889;29;20433;-75
2023/07/27 09:17:00;;;;;;;1.60;1.50;;;16.50;99.90;;;;;;4805966;29;20434;-75
2023/07/27 09:19:32;;;;;;;1.70;1.60;;;16.50;99.90;;;;;;4809994;29;20494;-76
2023/07/27 09:21:58;;;;;;;1.70;1.60;;;16.50;99.90;;;;;;4792456;29;20458;-75
2023/07/27 09:24:24;;;;;;;1.40;1.30;;;16.50;99.90;;;;;;4778775;29;20425;-75
2023/07/27 09:26:52;;;;;;;1.63;1.53;;;16.50;99.90;;;;;;4743949;30;20199;-77
2023/07/27 09:29:20;;;;;;;1.60;1.40;;;16.60;99.90;;;;;;4757002;30;20499;-76
2023/07/27 09:31:50;;;;;;;1.10;1.00;;;16.60;99.90;;;;;;4772651;30;20466;-75
2023/07/27 09:34:19;;;;;;;1.23;1.10;;;16.70;99.90;;;;;;4771410;30;20427;-76
2023/07/27 09:36:46;;;;;;;1.70;1.60;;;16.70;99.90;;;;;;4788039;30;20441;-77
2023/07/27 09:39:13;;;;;;;1.47;1.37;;;16.80;99.90;;;;;;4775731;29;20457;-76
2023/07/27 09:41:44;;;;;;;1.50;1.40;;;16.80;99.90;;;;;;4754256;30;20446;-75
2023/07/27 09:44:18;;;;;;;1.63;1.50;;;16.70;99.90;;;;;;4770761;30;20476;-75
2023/07/27 09:46:45;;;;;;;1.30;1.10;;;16.70;99.90;;;;;;4771274;30;20503;-75
2023/07/27 09:49:14;;;;;;;1.30;1.20;;;16.70;99.90;;;;;;4755662;30;20438;-76
2023/07/27 09:51:44;;;;;;;1.77;1.67;;;16.70;99.90;;;;;;4773013;30;20454;-76
2023/07/27 09:54:11;;;;;;;1.60;1.43;;;16.70;99.90;;;;;;4786172;30;20437;-76
2023/07/27 09:56:38;;;;;;;1.60;1.50;;;16.70;99.90;;;;;;4774074;30;20432;-77
2023/07/27 09:59:10;;;;;;;2.17;1.57;;;16.70;99.90;;;;;;4752094;30;20474;-76
2023/07/27 10:01:36;;;;;;;1.20;1.10;;;16.80;99.90;;;;;;4718332;30;20450;-76
2023/07/27 10:04:03;;;;;;;1.40;1.30;;;16.90;99.90;;;;;;4719815;30;20437;-78
2023/07/27 10:06:30;;;;;;;1.50;1.40;;;16.90;99.90;;;;;;4719560;30;20192;-77
2023/07/27 10:08:56;;;;;;;1.80;1.60;;;17.00;99.90;;;;;;4692343;30;20412;-77
2023/07/27 10:11:48;;;;;;;2.17;1.73;;;17.00;99.90;;;;;;4723128;30;20468;-78
2023/07/27 10:14:20;;;;;;;2.10;1.90;;;16.90;99.90;;;;;;4751276;30;20416;-78
2023/07/27 10:17:07;;;;;;;1.47;1.37;;;17.00;99.90;;;;;;4732138;30;20445;-75
2023/07/27 10:19:47;;;;;;;2.07;1.73;;;17.10;99.90;;;;;;4735329;30;20562;-78
2023/07/27 10:22:18;;;;;;;1.50;1.40;;;17.20;99.90;;;;;;4710247;30;20498;-78
2023/07/27 10:24:56;;;;;;;2.30;1.60;;;17.30;99.90;;;;;;4738179;30;20411;-78
2023/07/27 10:27:23;;;;;;;1.83;1.73;;;17.30;99.90;;;;;;4708978;30;20448;-77
2023/07/27 10:30:10;;;;;;;1.80;1.70;;;17.30;99.90;;;;;;4718724;30;20486;-77
2023/07/27 10:32:38;;;;;;;1.40;1.30;;;17.30;99.90;;;;;;4730886;30;20438;-77
2023/07/27 10:35:09;;;;;;;1.80;1.63;;;17.30;99.90;;;;;;4752489;30;20422;-76
2023/07/27 10:37:54;;;;;;;1.47;1.37;;;17.30;99.90;;;;;;4735222;30;20448;-75
2023/07/27 10:40:26;;;;;;;2.10;1.90;;;17.30;99.90;;;;;;4719344;30;20501;-77
2023/07/27 10:42:57;;;;;;;2.20;1.70;;;17.30;99.90;;;;;;4723524;30;20431;-76
2023/07/27 10:45:25;;;;;;;1.80;1.70;;;17.30;99.90;;;;;;4738647;30;20451;-78
2023/07/27 10:47:57;;;;;;;1.60;1.50;;;17.30;99.90;;;;;;4739087;30;20451;-74
2023/07/27 10:50:23;;;;;;;1.43;1.33;;;17.30;99.90;;;;;;4724432;30;20509;-77
2023/07/27 10:52:57;;;;;;;1.40;1.30;;;17.30;99.90;;;;;;4725698;30;20474;-76
2023/07/27 10:55:27;;;;;;;1.90;1.63;;;17.40;99.90;;;;;;4703116;30;20433;-76
2023/07/27 10:58:07;;;;;;;1.87;1.67;;;17.50;99.90;;;;;;4662429;30;20845;-76
2023/07/27 11:00:38;;;;;;;1.57;1.33;;;17.50;99.90;;;;;;4685479;30;20524;-76
2023/07/27 11:03:05;;;;;;;2.47;1.93;;;17.60;99.90;;;;;;4685305;30;20441;-77
2023/07/27 11:08:04;;;;;;;2.00;1.63;;;17.70;99.90;;;;;;4738682;30;20479;-77
2023/07/27 11:10:34;;;;;;;1.70;1.60;;;17.70;99.90;;;;;;4724604;30;20518;-77
2023/07/27 11:13:00;;;;;;;1.67;1.53;;;17.70;99.90;;;;;;4724907;30;20439;-74
2023/07/27 11:15:28;;;;;;;1.43;1.33;;;17.70;99.90;;;;;;4723619;30;20188;-76
2023/07/27 11:17:59;;;;;;;1.63;1.43;;;17.60;99.90;;;;;;4702100;30;20495;-77
2023/07/27 11:20:46;;;;;;;2.27;1.70;;;17.60;99.90;;;;;;4810555;24;20496;-77
2023/07/27 11:23:16;;;;;;;2.07;1.87;;;17.70;99.90;;;;;;4748748;30;20440;-77
2023/07/27 11:25:44;;;;;;;1.80;1.60;;;17.70;99.90;;;;;;4778597;30;20425;-77
2023/07/27 11:28:20;;;;;;;1.60;1.10;;;17.80;99.90;;;;;;4764834;30;20195;-77
2023/07/27 11:30:52;;;;;;;3.70;1.63;;;17.90;99.90;;;;;;4778302;30;20448;-77
2023/07/27 11:33:40;;;;;;;2.00;1.80;;;17.90;99.90;;;;;;4779180;30;20468;-78
2023/07/27 11:36:11;;;;;;;1.93;1.73;;;17.80;99.90;;;;;;4763972;30;20441;-77
2023/07/27 11:38:43;;;;;;;2.03;1.83;;;17.80;99.90;;;;;;4764763;30;20423;-77
2023/07/27 11:41:22;;;;;;;1.73;1.40;;;17.80;99.90;;;;;;4780484;30;20515;-79
2023/07/27 11:44:11;;;;;;;1.77;1.63;;;17.90;99.90;;;;;;5030436;24;20534;-77
2023/07/27 11:46:47;;;;;;;1.87;1.67;;;18.00;99.90;;;;;;4831373;29;20429;-77
2023/07/27 11:49:33;;;;;;;2.20;2.00;;;18.00;99.90;;;;;;4828431;29;20474;-74
2023/07/27 11:55:16;;;;;;;1.50;1.40;;;18.00;99.90;;;;;;5039986;24;20499;-77
2023/07/27 11:57:52;;;;;;;2.10;1.90;;;18.00;99.90;;;;;;4775096;30;20478;-76
2023/07/27 12:00:18;;;;;;;2.10;1.90;;;18.00;99.90;;;;;;4730795;30;20482;-77
2023/07/27 12:02:51;;;;;;;2.50;1.90;;;17.90;99.90;;;;;;4760958;30;20432;-78
2023/07/27 12:05:24;;;;;;;2.30;2.00;;;18.00;99.90;;;;;;4731782;30;20488;-77
2023/07/27 12:07:56;;;;;;;1.70;1.60;;;18.00;99.90;;;;;;4725700;30;20475;-77
2023/07/27 12:10:25;;;;;;;1.60;1.50;;;18.00;99.90;;;;;;4710144;30;20436;-77
2023/07/27 12:18:31;;;;;;;2.93;2.60;;;18.00;99.90;;;;;;4854737;24;20537;-78
2023/07/27 12:21:00;;;;;;;4.53;2.93;;;17.90;99.90;;;;;;4773456;30;20551;-76
2023/07/27 12:23:28;;;;;;;3.93;3.60;;;17.80;99.90;;;;;;4774423;30;20906;-76
2023/07/27 12:25:55;;;;;;;3.23;2.57;;;17.80;99.90;;;;;;4769405;30;20449;-75
2023/07/27 12:28:21;;;;;;;2.97;2.67;;;18.00;99.90;;;;;;4761623;30;20445;-78
2023/07/27 12:30:47;;;;;;;3.67;3.07;;;18.10;99.90;;;;;;4763403;30;20464;-77
2023/07/27 12:33:14;;;;;;;3.77;2.67;;;18.10;99.90;;;;;;4757196;30;20493;-75
2023/07/27 12:35:40;;;;;;;3.10;2.80;;;18.10;99.90;;;;;;4790911;29;20445;-78
2023/07/27 12:38:15;;;;;;;3.40;2.70;;;18.10;99.90;;;;;;4771987;30;21150;-76
2023/07/27 12:40:41;;;;;;;3.20;2.40;;;18.10;99.90;;;;;;4757194;30;20220;-75
2023/07/27 12:43:07;;;;;;;3.47;2.50;;;18.20;99.90;;;;;;4742376;30;20423;-79
2023/07/27 12:45:46;;;;;;;2.90;2.43;;;18.30;99.90;;;;;;4758823;30;20220;-78
2023/07/27 12:48:14;;;;;;;2.37;2.17;;;18.30;99.90;;;;;;4772933;30;20417;-77
2023/07/27 12:50:41;;;;;;;2.73;2.50;;;18.30;99.90;;;;;;4769962;30;20481;-76
2023/07/27 12:53:07;;;;;;;2.00;1.80;;;18.30;99.90;;;;;;4756518;30;20480;-77
2023/07/27 12:55:33;;;;;;;2.40;2.20;;;18.40;99.90;;;;;;4742181;30;20468;-78
2023/07/27 12:58:02;;;;;;;2.30;2.10;;;18.40;99.90;;;;;;4757630;30;20446;-76
2023/07/27 13:00:48;;;;;;;2.40;2.20;;;18.40;99.90;;;;;;5259288;24;20308;-78
2023/07/27 13:06:21;;;;;;;2.70;2.50;;;18.40;99.90;;;;;;4896690;24;20474;-78